Time;durP1;ratioP1;P1;durP2;ratioP2;P2;SDS_P1;SDS_P2;PMS_P1;PMS_P2;Temp;Humidity;BMP_temperature;BMP_pressure;BME280_temperature;BME280_humidity;BME280_pressure;Samples;Min_cycle;Max_cycle;Signal;HPM_P1;HPM_P2
2023/08/12 00:00:58;;;;;;;5.22;1.77;;;;;;;;;;2040502;28;20024;-80
2023/08/12 00:02:17;;;;;;;6.57;1.63;;;;;;;;;;2036562;28;20103;-77
2023/08/12 00:03:36;;;;;;;4.57;1.58;;;;;;;;;;2036716;28;20032;-77
2023/08/12 00:04:54;;;;;;;8.10;1.60;;;;;;;;;;2037349;28;20043;-78
2023/08/12 00:06:14;;;;;;;4.88;1.83;;;;;;;;;;2038213;28;20028;-78
2023/08/12 00:07:33;;;;;;;4.70;1.60;;;;;;;;;;2043493;28;20082;-79
2023/08/12 00:08:52;;;;;;;2.47;1.55;;;;;;;;;;2044425;28;20035;-78
2023/08/12 00:10:11;;;;;;;6.82;1.75;;;;;;;;;;2049639;28;20062;-78
2023/08/12 00:11:30;;;;;;;2.78;1.45;;;;;;;;;;2047796;29;20492;-78
2023/08/12 00:12:49;;;;;;;4.93;2.00;;;;;;;;;;2042240;28;20776;-78
2023/08/12 00:14:08;;;;;;;3.50;1.60;;;;;;;;;;2047309;28;20070;-78
2023/08/12 00:15:27;;;;;;;3.70;1.83;;;;;;;;;;2049913;28;20488;-79
2023/08/12 00:16:47;;;;;;;4.05;1.27;;;;;;;;;;2038110;28;20024;-78
2023/08/12 00:18:06;;;;;;;2.33;1.33;;;;;;;;;;2046393;28;20035;-78
2023/08/12 00:19:25;;;;;;;5.35;1.92;;;;;;;;;;2041967;28;20063;-78
2023/08/12 00:20:44;;;;;;;4.65;2.00;;;;;;;;;;2044723;28;20028;-78
2023/08/12 00:22:04;;;;;;;6.05;1.88;;;;;;;;;;2038419;28;20102;-78
2023/08/12 00:23:23;;;;;;;6.05;1.80;;;;;;;;;;2037652;28;20036;-77
2023/08/12 00:24:42;;;;;;;3.38;1.50;;;;;;;;;;2043490;28;20062;-78
2023/08/12 00:26:01;;;;;;;6.05;1.80;;;;;;;;;;2039431;28;20036;-77
2023/08/12 00:27:20;;;;;;;3.75;1.83;;;;;;;;;;2042922;28;20035;-78
2023/08/12 00:28:39;;;;;;;5.85;1.85;;;;;;;;;;2048289;28;20039;-78
2023/08/12 00:29:58;;;;;;;7.10;2.10;;;;;;;;;;2047521;28;20130;-78
2023/08/12 00:31:17;;;;;;;3.17;1.80;;;;;;;;;;2038619;28;20032;-79
2023/08/12 00:32:36;;;;;;;2.90;1.80;;;;;;;;;;2036007;28;20038;-80
2023/08/12 00:33:55;;;;;;;8.00;2.15;;;;;;;;;;2045539;28;21644;-78
2023/08/12 00:35:14;;;;;;;2.72;1.60;;;;;;;;;;2049397;28;20043;-78
2023/08/12 00:36:33;;;;;;;5.30;1.50;;;;;;;;;;2038723;28;20045;-78
2023/08/12 00:37:52;;;;;;;4.97;2.28;;;;;;;;;;2045220;28;20031;-78
2023/08/12 00:39:11;;;;;;;2.25;1.50;;;;;;;;;;2048089;28;20020;-77
2023/08/12 00:40:31;;;;;;;6.00;1.73;;;;;;;;;;2038751;28;20717;-77
2023/08/12 00:41:50;;;;;;;4.93;1.70;;;;;;;;;;2038460;28;20028;-77
2023/08/12 00:43:09;;;;;;;3.30;1.75;;;;;;;;;;2045297;28;20094;-78
2023/08/12 00:44:28;;;;;;;7.85;2.58;;;;;;;;;;2048393;28;20039;-77
2023/08/12 00:45:47;;;;;;;7.72;2.33;;;;;;;;;;2045343;28;20031;-77
2023/08/12 00:47:06;;;;;;;4.55;2.00;;;;;;;;;;2041727;28;20036;-77
2023/08/12 00:48:25;;;;;;;4.05;1.95;;;;;;;;;;2046165;28;20114;-78
2023/08/12 00:49:45;;;;;;;4.25;1.80;;;;;;;;;;2039903;28;20040;-77
2023/08/12 00:51:04;;;;;;;7.05;2.00;;;;;;;;;;2036337;28;20469;-79
2023/08/12 00:52:23;;;;;;;7.10;1.80;;;;;;;;;;2039236;28;20036;-78
2023/08/12 00:53:43;;;;;;;3.58;2.22;;;;;;;;;;2045143;28;20039;-79
2023/08/12 00:55:02;;;;;;;7.18;2.17;;;;;;;;;;2048269;28;20106;-78
2023/08/12 00:56:21;;;;;;;6.47;1.95;;;;;;;;;;2047116;28;20039;-78
2023/08/12 00:57:40;;;;;;;5.15;1.98;;;;;;;;;;2047894;28;20030;-79
2023/08/12 00:59:00;;;;;;;3.20;1.65;;;;;;;;;;2049600;28;20480;-79
2023/08/12 01:00:20;;;;;;;2.60;1.92;;;;;;;;;;2045732;28;20019;-78
2023/08/12 01:01:43;;;;;;;4.63;1.70;;;;;;;;;;2036575;28;20039;-79
2023/08/12 01:03:03;;;;;;;3.85;2.15;;;;;;;;;;2045515;28;20031;-79
2023/08/12 01:04:22;;;;;;;2.58;1.92;;;;;;;;;;2039275;28;20035;-78
2023/08/12 01:05:41;;;;;;;3.83;2.13;;;;;;;;;;2035814;28;20032;-79
2023/08/12 01:07:00;;;;;;;3.17;1.83;;;;;;;;;;2035908;28;20448;-77
2023/08/12 01:08:19;;;;;;;3.92;2.03;;;;;;;;;;2038998;28;20031;-78
2023/08/12 01:09:39;;;;;;;5.82;1.77;;;;;;;;;;2045290;28;20028;-78
2023/08/12 01:11:01;;;;;;;2.08;1.90;;;;;;;;;;2046995;28;20500;-79
2023/08/12 01:12:33;;;;;;;4.20;1.90;;;;;;;;;;2046875;28;20074;-78
2023/08/12 01:13:58;;;;;;;4.55;1.95;;;;;;;;;;2047466;29;20043;-79
2023/08/12 01:15:21;;;;;;;6.95;1.98;;;;;;;;;;2045070;28;20072;-78
2023/08/12 01:16:45;;;;;;;4.07;1.80;;;;;;;;;;2037160;29;20412;-79
2023/08/12 01:18:05;;;;;;;4.85;2.33;;;;;;;;;;2037086;28;20063;-81
2023/08/12 01:19:30;;;;;;;3.50;1.73;;;;;;;;;;2043205;28;20028;-79
2023/08/12 01:20:49;;;;;;;3.70;2.25;;;;;;;;;;2051319;28;20024;-79
2023/08/12 01:22:09;;;;;;;7.82;1.98;;;;;;;;;;2050479;28;20039;-78
2023/08/12 01:23:28;;;;;;;3.72;1.90;;;;;;;;;;2047586;28;20039;-79
2023/08/12 01:24:47;;;;;;;3.85;1.75;;;;;;;;;;2050441;28;20035;-79
2023/08/12 01:26:07;;;;;;;6.15;1.80;;;;;;;;;;2043264;28;20039;-78
2023/08/12 01:27:26;;;;;;;3.95;1.55;;;;;;;;;;2044774;28;20396;-78
2023/08/12 01:28:45;;;;;;;5.60;2.20;;;;;;;;;;2051194;28;20074;-78
2023/08/12 01:30:10;;;;;;;4.05;2.40;;;;;;;;;;2048175;28;20035;-79
2023/08/12 01:31:42;;;;;;;4.88;1.92;;;;;;;;;;2047715;28;20024;-78
2023/08/12 01:33:10;;;;;;;4.18;1.77;;;;;;;;;;2049556;28;20039;-79
2023/08/12 01:34:36;;;;;;;6.43;1.70;;;;;;;;;;2039863;28;20449;-78
2023/08/12 01:36:19;;;;;;;3.55;1.98;;;;;;;;;;2038378;28;20115;-79
2023/08/12 01:37:39;;;;;;;5.75;2.28;;;;;;;;;;2049121;28;20122;-79
2023/08/12 01:38:59;;;;;;;5.30;1.92;;;;;;;;;;2049963;28;20122;-77
2023/08/12 01:40:19;;;;;;;5.03;2.17;;;;;;;;;;2052401;28;20017;-78
2023/08/12 01:41:38;;;;;;;3.72;1.92;;;;;;;;;;2048978;28;20027;-78
2023/08/12 01:42:57;;;;;;;6.95;2.17;;;;;;;;;;2048405;28;20027;-78
2023/08/12 01:44:16;;;;;;;3.92;1.73;;;;;;;;;;2044846;28;20620;-78
2023/08/12 01:45:35;;;;;;;8.25;2.17;;;;;;;;;;2046532;28;20997;-78
2023/08/12 01:46:55;;;;;;;5.15;2.00;;;;;;;;;;2049300;28;20023;-79
2023/08/12 01:48:13;;;;;;;4.55;1.92;;;;;;;;;;2047837;28;20031;-78
2023/08/12 01:49:32;;;;;;;3.53;1.70;;;;;;;;;;2048711;29;20055;-79
2023/08/12 01:50:51;;;;;;;7.57;1.75;;;;;;;;;;2043176;28;20028;-78
2023/08/12 01:52:11;;;;;;;3.88;1.60;;;;;;;;;;2050812;28;20035;-78
2023/08/12 01:53:30;;;;;;;3.45;1.67;;;;;;;;;;2047295;28;20047;-78
2023/08/12 01:54:49;;;;;;;5.25;1.83;;;;;;;;;;2049830;28;20025;-79
2023/08/12 01:56:09;;;;;;;4.60;2.17;;;;;;;;;;2046112;28;20031;-78
2023/08/12 01:57:28;;;;;;;4.93;1.90;;;;;;;;;;2047316;28;20028;-79
2023/08/12 01:58:46;;;;;;;5.00;2.13;;;;;;;;;;2047812;28;20023;-79
2023/08/12 02:00:06;;;;;;;5.68;2.20;;;;;;;;;;2046127;28;20035;-79
2023/08/12 02:01:25;;;;;;;5.00;1.83;;;;;;;;;;2049122;28;20023;-78
2023/08/12 02:02:46;;;;;;;4.18;2.20;;;;;;;;;;2045809;28;20023;-78
2023/08/12 02:04:05;;;;;;;3.25;2.00;;;;;;;;;;2045581;28;20027;-78
2023/08/12 02:05:25;;;;;;;3.58;1.80;;;;;;;;;;2043043;28;20024;-79
2023/08/12 02:06:44;;;;;;;2.92;1.75;;;;;;;;;;2046568;28;20489;-78
2023/08/12 02:08:04;;;;;;;3.92;2.13;;;;;;;;;;2038351;28;20442;-78
2023/08/12 02:09:23;;;;;;;5.55;2.40;;;;;;;;;;2044020;29;20086;-77
2023/08/12 02:10:42;;;;;;;4.40;2.22;;;;;;;;;;2047550;28;20031;-78
2023/08/12 02:12:01;;;;;;;7.38;2.20;;;;;;;;;;2040252;28;20051;-78
2023/08/12 02:13:20;;;;;;;4.95;2.08;;;;;;;;;;2036959;28;20421;-78
2023/08/12 02:14:39;;;;;;;7.03;2.50;;;;;;;;;;2045153;28;20028;-79
2023/08/12 02:15:58;;;;;;;6.47;2.25;;;;;;;;;;2050561;28;20106;-78
2023/08/12 02:17:17;;;;;;;5.20;2.00;;;;;;;;;;2040356;28;20066;-78
2023/08/12 02:18:36;;;;;;;6.93;2.40;;;;;;;;;;2045003;28;20508;-78
2023/08/12 02:19:55;;;;;;;5.22;2.35;;;;;;;;;;2050824;28;20032;-79
2023/08/12 02:21:13;;;;;;;2.67;2.20;;;;;;;;;;2039733;28;20020;-78
2023/08/12 02:22:32;;;;;;;2.33;2.05;;;;;;;;;;2049884;28;20040;-78
2023/08/12 02:23:52;;;;;;;5.20;2.70;;;;;;;;;;2046759;28;20031;-78
2023/08/12 02:25:11;;;;;;;3.00;2.10;;;;;;;;;;2046172;28;20031;-78
2023/08/12 02:26:30;;;;;;;8.10;2.20;;;;;;;;;;2040082;28;20032;-78
2023/08/12 02:27:49;;;;;;;4.15;2.58;;;;;;;;;;2045059;28;20039;-78
2023/08/12 02:29:08;;;;;;;7.70;2.67;;;;;;;;;;2041082;28;20039;-78
2023/08/12 02:30:28;;;;;;;7.72;2.30;;;;;;;;;;2044481;28;20035;-79
2023/08/12 02:31:47;;;;;;;6.35;2.42;;;;;;;;;;2040356;28;20028;-78
2023/08/12 02:33:06;;;;;;;3.13;2.35;;;;;;;;;;2038159;28;20040;-77
2023/08/12 02:34:25;;;;;;;2.80;2.10;;;;;;;;;;2050059;28;20423;-78
2023/08/12 02:35:44;;;;;;;9.60;2.70;;;;;;;;;;2038935;28;20028;-78
2023/08/12 02:37:03;;;;;;;7.13;2.30;;;;;;;;;;2036461;28;21172;-78
2023/08/12 02:38:22;;;;;;;5.65;2.50;;;;;;;;;;2043983;29;20035;-78
2023/08/12 02:39:41;;;;;;;6.05;2.47;;;;;;;;;;2039063;28;20028;-79
2023/08/12 02:41:00;;;;;;;4.78;2.40;;;;;;;;;;2045049;28;20024;-79
2023/08/12 02:42:19;;;;;;;4.60;2.08;;;;;;;;;;2042942;28;20020;-78
2023/08/12 02:43:38;;;;;;;5.47;2.00;;;;;;;;;;2051635;28;20039;-80
2023/08/12 02:44:59;;;;;;;5.25;2.92;;;;;;;;;;2041796;28;20040;-78
2023/08/12 02:46:18;;;;;;;5.05;2.83;;;;;;;;;;2039944;28;20024;-78
2023/08/12 02:47:37;;;;;;;3.47;2.28;;;;;;;;;;2038508;28;20038;-78
2023/08/12 02:48:56;;;;;;;3.47;1.67;;;;;;;;;;2036745;28;20032;-78
2023/08/12 02:50:16;;;;;;;5.78;1.95;;;;;;;;;;2079859;28;20033;-78
2023/08/12 02:51:35;;;;;;;3.85;2.08;;;;;;;;;;2061511;28;20500;-78
2023/08/12 02:52:54;;;;;;;3.90;1.90;;;;;;;;;;2039454;28;20036;-78
2023/08/12 02:54:14;;;;;;;6.22;2.10;;;;;;;;;;2043281;28;20040;-78
2023/08/12 02:55:33;;;;;;;7.63;2.22;;;;;;;;;;2039737;28;20024;-78
2023/08/12 02:56:52;;;;;;;3.13;2.20;;;;;;;;;;2051424;28;20027;-78
2023/08/12 02:58:11;;;;;;;5.00;2.33;;;;;;;;;;2038828;29;20024;-78
2023/08/12 02:59:30;;;;;;;7.05;3.13;;;;;;;;;;2069783;28;20434;-77
2023/08/12 03:00:49;;;;;;;8.15;2.63;;;;;;;;;;2056316;28;20472;-79
2023/08/12 03:02:09;;;;;;;6.68;2.53;;;;;;;;;;2039750;28;20028;-78
2023/08/12 03:03:29;;;;;;;5.80;2.67;;;;;;;;;;2049006;28;20023;-78
2023/08/12 03:04:47;;;;;;;4.18;2.38;;;;;;;;;;2042664;28;20035;-78
2023/08/12 03:06:07;;;;;;;4.85;2.75;;;;;;;;;;2036079;28;20496;-78
2023/08/12 03:07:26;;;;;;;3.97;2.20;;;;;;;;;;2048518;28;20035;-79
2023/08/12 03:08:45;;;;;;;5.53;2.40;;;;;;;;;;2040124;28;20067;-78
2023/08/12 03:10:05;;;;;;;5.25;2.22;;;;;;;;;;2035001;28;20028;-79
2023/08/12 03:11:24;;;;;;;4.43;2.20;;;;;;;;;;2044739;29;20118;-78
2023/08/12 03:12:42;;;;;;;2.35;2.00;;;;;;;;;;2046448;28;20047;-78
2023/08/12 03:14:01;;;;;;;6.18;2.53;;;;;;;;;;2041106;28;20032;-79
2023/08/12 03:15:20;;;;;;;5.45;2.50;;;;;;;;;;2042486;28;20488;-78
2023/08/12 03:16:39;;;;;;;3.75;2.15;;;;;;;;;;2038604;28;20040;-77
2023/08/12 03:17:57;;;;;;;4.82;2.40;;;;;;;;;;2044402;28;20035;-78
2023/08/12 03:19:16;;;;;;;3.75;1.88;;;;;;;;;;2039570;28;20039;-78
2023/08/12 03:20:36;;;;;;;5.35;2.10;;;;;;;;;;2044636;28;20028;-79
2023/08/12 03:21:55;;;;;;;5.28;2.22;;;;;;;;;;2049144;28;20416;-78
2023/08/12 03:23:14;;;;;;;5.70;2.28;;;;;;;;;;2046439;28;20407;-79
2023/08/12 03:24:33;;;;;;;5.22;2.55;;;;;;;;;;2040731;28;20497;-78
2023/08/12 03:25:52;;;;;;;4.45;2.28;;;;;;;;;;2044473;28;20043;-78
2023/08/12 03:27:11;;;;;;;5.38;2.20;;;;;;;;;;2038892;28;20032;-78
2023/08/12 03:28:31;;;;;;;3.92;2.10;;;;;;;;;;2044144;28;20039;-78
2023/08/12 03:29:50;;;;;;;4.60;2.10;;;;;;;;;;2047683;28;20452;-79
2023/08/12 03:31:09;;;;;;;2.65;2.00;;;;;;;;;;2051107;28;20031;-79
2023/08/12 03:32:28;;;;;;;3.47;2.22;;;;;;;;;;2048842;28;20495;-78
2023/08/12 03:33:46;;;;;;;5.82;2.13;;;;;;;;;;2047560;29;20122;-78
2023/08/12 03:35:06;;;;;;;5.97;2.47;;;;;;;;;;2047367;28;20028;-79
2023/08/12 03:36:25;;;;;;;2.78;2.15;;;;;;;;;;2046464;28;20040;-78
2023/08/12 03:37:44;;;;;;;5.50;2.10;;;;;;;;;;2039600;28;20516;-77
2023/08/12 03:39:03;;;;;;;3.72;2.00;;;;;;;;;;2042508;28;20101;-78
2023/08/12 03:40:22;;;;;;;5.57;1.80;;;;;;;;;;2036216;29;20028;-78
2023/08/12 03:41:40;;;;;;;4.85;2.08;;;;;;;;;;2047655;28;20447;-78
2023/08/12 03:42:59;;;;;;;2.17;1.92;;;;;;;;;;2037812;28;20063;-79
2023/08/12 03:44:18;;;;;;;3.25;1.77;;;;;;;;;;2044375;28;20540;-79
2023/08/12 03:45:41;;;;;;;4.10;1.98;;;;;;;;;;2043457;28;20028;-80
2023/08/12 03:47:00;;;;;;;5.18;2.22;;;;;;;;;;2048215;28;20031;-78
2023/08/12 03:48:20;;;;;;;4.80;1.80;;;;;;;;;;2039906;28;20032;-79
2023/08/12 03:49:39;;;;;;;4.10;2.05;;;;;;;;;;2036114;28;20112;-81
2023/08/12 03:50:58;;;;;;;2.42;1.70;;;;;;;;;;2043413;28;20016;-79
2023/08/12 03:52:17;;;;;;;7.35;1.83;;;;;;;;;;2051687;28;20036;-79
2023/08/12 03:53:36;;;;;;;2.03;1.83;;;;;;;;;;2050040;28;20119;-79
2023/08/12 03:54:55;;;;;;;4.78;1.92;;;;;;;;;;2039872;28;20024;-79
2023/08/12 03:56:16;;;;;;;2.33;1.92;;;;;;;;;;2038412;28;20424;-78
2023/08/12 03:57:35;;;;;;;5.75;2.85;;;;;;;;;;2038675;28;20023;-79
2023/08/12 03:58:54;;;;;;;2.70;1.80;;;;;;;;;;2047691;28;20400;-79
2023/08/12 04:00:13;;;;;;;7.90;2.15;;;;;;;;;;2040309;28;20104;-78
2023/08/12 04:01:32;;;;;;;4.57;1.80;;;;;;;;;;2038866;28;20048;-79
2023/08/12 04:02:59;;;;;;;3.88;1.75;;;;;;;;;;2107182;27;20129;-70
2023/08/12 04:04:18;;;;;;;2.72;1.67;;;;;;;;;;2108566;28;20130;-69
2023/08/12 04:05:37;;;;;;;2.70;1.65;;;;;;;;;;2109065;28;20044;-69
2023/08/12 04:06:56;;;;;;;5.00;1.95;;;;;;;;;;2111199;28;20074;-70
2023/08/12 04:08:15;;;;;;;3.63;1.98;;;;;;;;;;2109328;28;20892;-69
2023/08/12 04:09:34;;;;;;;3.25;1.85;;;;;;;;;;2108898;28;20036;-71
2023/08/12 04:10:53;;;;;;;4.05;1.60;;;;;;;;;;2110108;28;20473;-70
2023/08/12 04:12:11;;;;;;;5.68;1.90;;;;;;;;;;2109091;28;20036;-70
2023/08/12 04:13:30;;;;;;;2.72;1.88;;;;;;;;;;2111479;28;20032;-70
2023/08/12 04:14:49;;;;;;;4.30;1.80;;;;;;;;;;2109226;28;20024;-68
2023/08/12 04:16:08;;;;;;;2.90;1.65;;;;;;;;;;2110582;28;20032;-70
2023/08/12 04:17:27;;;;;;;10.35;1.70;;;;;;;;;;2108944;28;20031;-69
2023/08/12 04:18:46;;;;;;;2.05;1.40;;;;;;;;;;2109717;28;20024;-67
2023/08/12 04:20:06;;;;;;;3.35;2.22;;;;;;;;;;2111266;28;20065;-70
2023/08/12 04:21:25;;;;;;;3.08;1.58;;;;;;;;;;2103299;28;20044;-69
2023/08/12 04:22:44;;;;;;;4.22;1.40;;;;;;;;;;2105844;28;20031;-70
2023/08/12 04:24:03;;;;;;;3.13;1.50;;;;;;;;;;2106773;28;20029;-72
2023/08/12 04:25:23;;;;;;;2.05;1.40;;;;;;;;;;2103923;28;20035;-69
2023/08/12 04:26:41;;;;;;;4.63;1.70;;;;;;;;;;2105427;28;20040;-70
2023/08/12 04:28:01;;;;;;;2.75;2.00;;;;;;;;;;2105007;28;20016;-65
2023/08/12 04:29:20;;;;;;;2.38;1.70;;;;;;;;;;2107391;28;20074;-70
2023/08/12 04:30:45;;;;;;;2.78;1.30;;;;;;;;;;2103005;28;20020;-66
2023/08/12 04:32:05;;;;;;;2.20;1.40;;;;;;;;;;2105602;28;20270;-72
2023/08/12 04:33:23;;;;;;;3.08;1.55;;;;;;;;;;2105640;28;20028;-67
2023/08/12 04:34:42;;;;;;;2.03;1.38;;;;;;;;;;2106661;28;20024;-67
2023/08/12 04:36:02;;;;;;;3.45;1.67;;;;;;;;;;2101312;28;20040;-70
2023/08/12 04:37:21;;;;;;;2.75;1.65;;;;;;;;;;2105241;28;20028;-66
2023/08/12 04:38:40;;;;;;;2.70;1.67;;;;;;;;;;2105651;28;20617;-70
2023/08/12 04:39:59;;;;;;;2.88;1.30;;;;;;;;;;2104989;28;20027;-71
2023/08/12 04:41:18;;;;;;;5.22;1.50;;;;;;;;;;2104224;28;20028;-70
2023/08/12 04:42:37;;;;;;;5.75;1.60;;;;;;;;;;2102365;28;20032;-67
2023/08/12 04:43:56;;;;;;;2.22;1.33;;;;;;;;;;2102297;28;20103;-70
2023/08/12 04:45:15;;;;;;;3.03;1.40;;;;;;;;;;2103364;28;20031;-70
2023/08/12 04:46:34;;;;;;;4.15;1.33;;;;;;;;;;2101856;28;20477;-66
2023/08/12 04:47:53;;;;;;;2.38;1.30;;;;;;;;;;2100793;28;20033;-70
2023/08/12 04:49:12;;;;;;;3.30;1.30;;;;;;;;;;2105383;28;20029;-69
2023/08/12 04:50:31;;;;;;;2.75;1.27;;;;;;;;;;2101813;28;20449;-66
2023/08/12 04:51:51;;;;;;;3.35;1.60;;;;;;;;;;2091289;28;20553;-69
2023/08/12 04:53:10;;;;;;;1.55;1.40;;;;;;;;;;2100453;28;20028;-66
2023/08/12 04:54:29;;;;;;;3.33;1.42;;;;;;;;;;2102911;28;20564;-69
2023/08/12 04:55:51;;;;;;;2.05;1.42;;;;;;;;;;2101603;28;20045;-69
2023/08/12 04:57:10;;;;;;;2.03;1.60;;;;;;;;;;2105670;28;20032;-67
2023/08/12 04:58:29;;;;;;;1.95;1.27;;;;;;;;;;2106186;28;20033;-69
2023/08/12 04:59:48;;;;;;;2.80;1.58;;;;;;;;;;2100741;28;20036;-67
2023/08/12 05:01:07;;;;;;;2.72;1.58;;;;;;;;;;2101649;28;20392;-69
2023/08/12 05:02:27;;;;;;;4.97;1.23;;;;;;;;;;2103375;28;20044;-69
2023/08/12 05:03:46;;;;;;;2.17;1.58;;;;;;;;;;2103930;28;20397;-67
2023/08/12 05:05:05;;;;;;;2.92;1.73;;;;;;;;;;2105766;28;20012;-69
2023/08/12 05:06:24;;;;;;;3.80;1.35;;;;;;;;;;2103744;28;20624;-68
2023/08/12 05:07:44;;;;;;;1.92;1.67;;;;;;;;;;2105747;28;20020;-69
2023/08/12 05:09:03;;;;;;;2.50;1.20;;;;;;;;;;2104224;28;20023;-69
2023/08/12 05:10:22;;;;;;;2.47;1.20;;;;;;;;;;2103922;28;20025;-69
2023/08/12 05:11:41;;;;;;;3.40;1.35;;;;;;;;;;2100593;28;20493;-63
2023/08/12 05:13:00;;;;;;;2.17;1.10;;;;;;;;;;2099865;28;20048;-66
2023/08/12 05:14:19;;;;;;;2.20;1.30;;;;;;;;;;2099008;28;20059;-68
2023/08/12 05:15:38;;;;;;;2.75;1.42;;;;;;;;;;2096973;28;20041;-66
2023/08/12 05:16:57;;;;;;;3.33;1.40;;;;;;;;;;2093452;28;20032;-62
2023/08/12 05:18:16;;;;;;;3.50;1.20;;;;;;;;;;2093913;28;20033;-69
2023/08/12 05:19:35;;;;;;;2.00;1.20;;;;;;;;;;2097992;28;20113;-68
2023/08/12 05:20:54;;;;;;;3.22;1.40;;;;;;;;;;2099365;28;20035;-69
2023/08/12 05:22:13;;;;;;;2.05;1.40;;;;;;;;;;2096730;28;20436;-65
2023/08/12 05:23:32;;;;;;;1.98;1.40;;;;;;;;;;2099669;28;20459;-67
2023/08/12 05:24:51;;;;;;;1.38;1.05;;;;;;;;;;2097405;28;20446;-69
2023/08/12 05:26:10;;;;;;;2.05;1.10;;;;;;;;;;2096997;28;20033;-70
2023/08/12 05:27:28;;;;;;;2.85;1.30;;;;;;;;;;2097910;28;20062;-69
2023/08/12 05:28:47;;;;;;;3.92;1.52;;;;;;;;;;2093150;28;20128;-63
2023/08/12 05:30:06;;;;;;;1.00;0.95;;;;;;;;;;2096780;28;20047;-66
2023/08/12 05:31:25;;;;;;;1.80;1.42;;;;;;;;;;2097396;28;20045;-69
2023/08/12 05:32:44;;;;;;;2.47;1.38;;;;;;;;;;2100495;28;20023;-69
2023/08/12 05:34:04;;;;;;;7.00;2.45;;;;;;;;;;2098225;28;20032;-69
2023/08/12 05:35:22;;;;;;;1.73;1.10;;;;;;;;;;2097364;28;20120;-68
2023/08/12 05:36:41;;;;;;;2.22;1.20;;;;;;;;;;2096392;28;20028;-69
2023/08/12 05:38:00;;;;;;;2.20;1.25;;;;;;;;;;2099612;28;20028;-69
2023/08/12 05:39:19;;;;;;;3.13;1.10;;;;;;;;;;2098676;28;20032;-64
2023/08/12 05:40:38;;;;;;;4.75;1.20;;;;;;;;;;2096538;28;20036;-69
2023/08/12 05:41:57;;;;;;;3.17;1.60;;;;;;;;;;2095757;28;20100;-67
2023/08/12 05:43:16;;;;;;;5.63;1.75;;;;;;;;;;2088628;28;20032;-68
2023/08/12 05:44:35;;;;;;;2.03;1.20;;;;;;;;;;2094017;28;20434;-69
2023/08/12 05:45:54;;;;;;;1.30;1.20;;;;;;;;;;2098046;28;20473;-70
2023/08/12 05:47:13;;;;;;;2.63;1.33;;;;;;;;;;2095318;28;20500;-69
2023/08/12 05:48:32;;;;;;;2.85;1.30;;;;;;;;;;2092174;28;20040;-67
2023/08/12 05:49:51;;;;;;;1.50;1.00;;;;;;;;;;2100264;28;20024;-69
2023/08/12 05:51:10;;;;;;;4.05;1.27;;;;;;;;;;2098596;28;20032;-67
2023/08/12 05:52:29;;;;;;;1.92;1.30;;;;;;;;;;2096196;28;20028;-68
2023/08/12 05:53:48;;;;;;;2.92;1.10;;;;;;;;;;2094909;28;20037;-69
2023/08/12 05:55:07;;;;;;;2.17;1.10;;;;;;;;;;2098764;28;20060;-67
2023/08/12 05:56:26;;;;;;;2.33;1.27;;;;;;;;;;2097664;28;20037;-65
2023/08/12 05:57:45;;;;;;;2.80;1.30;;;;;;;;;;2095395;28;20119;-69
2023/08/12 05:59:04;;;;;;;3.60;1.10;;;;;;;;;;2095612;28;20481;-69
2023/08/12 06:00:23;;;;;;;2.42;1.20;;;;;;;;;;2096788;28;20075;-69
2023/08/12 06:01:42;;;;;;;2.42;1.10;;;;;;;;;;2099439;28;20028;-70
2023/08/12 06:03:01;;;;;;;3.50;1.35;;;;;;;;;;2099842;28;20435;-71
2023/08/12 06:04:20;;;;;;;2.33;0.90;;;;;;;;;;2095367;28;20036;-71
2023/08/12 06:05:41;;;;;;;3.15;1.02;;;;;;;;;;2095946;28;20033;-65
2023/08/12 06:07:00;;;;;;;3.45;1.35;;;;;;;;;;2099732;28;20024;-68
2023/08/12 06:08:19;;;;;;;2.78;1.48;;;;;;;;;;2101020;28;20021;-69
2023/08/12 06:09:38;;;;;;;2.58;1.10;;;;;;;;;;2099447;28;20028;-69
2023/08/12 06:10:56;;;;;;;4.43;1.00;;;;;;;;;;2097527;28;20028;-68
2023/08/12 06:12:15;;;;;;;3.30;1.33;;;;;;;;;;2098175;28;20033;-69
2023/08/12 06:13:34;;;;;;;1.65;0.85;;;;;;;;;;2096830;28;20465;-69
2023/08/12 06:14:53;;;;;;;3.08;1.00;;;;;;;;;;2098685;28;20067;-70
2023/08/12 06:16:12;;;;;;;3.80;1.20;;;;;;;;;;2095995;28;20389;-69
2023/08/12 06:17:31;;;;;;;1.73;1.13;;;;;;;;;;2089463;28;20025;-69
2023/08/12 06:18:50;;;;;;;1.95;1.23;;;;;;;;;;2094735;28;20115;-69
2023/08/12 06:20:09;;;;;;;5.07;1.02;;;;;;;;;;2098728;28;20020;-69
2023/08/12 06:21:28;;;;;;;1.92;0.98;;;;;;;;;;2095634;28;20060;-62
2023/08/12 06:22:47;;;;;;;2.90;1.10;;;;;;;;;;2096038;28;20086;-65
2023/08/12 06:24:06;;;;;;;1.23;0.90;;;;;;;;;;2096135;28;20037;-67
2023/08/12 06:25:25;;;;;;;1.98;1.10;;;;;;;;;;2097702;28;20024;-69
2023/08/12 06:26:44;;;;;;;2.08;1.10;;;;;;;;;;2096755;28;20800;-68
2023/08/12 06:28:04;;;;;;;3.45;1.00;;;;;;;;;;2095191;28;20202;-67
2023/08/12 06:29:23;;;;;;;2.70;1.23;;;;;;;;;;2096984;28;20401;-69
2023/08/12 06:30:44;;;;;;;1.63;1.08;;;;;;;;;;2098769;28;20024;-69
2023/08/12 06:32:03;;;;;;;7.25;1.10;;;;;;;;;;2099789;28;20484;-67
2023/08/12 06:33:22;;;;;;;3.25;1.08;;;;;;;;;;2098740;28;20029;-69
2023/08/12 06:34:41;;;;;;;2.13;0.82;;;;;;;;;;2095984;28;20037;-69
2023/08/12 06:36:00;;;;;;;1.00;0.90;;;;;;;;;;2099867;28;20063;-70
2023/08/12 06:37:19;;;;;;;1.63;1.00;;;;;;;;;;2100884;28;20422;-69
2023/08/12 06:38:38;;;;;;;3.22;1.17;;;;;;;;;;2098729;28;20028;-69
2023/08/12 06:39:57;;;;;;;1.52;0.73;;;;;;;;;;2098747;28;20415;-67
2023/08/12 06:41:16;;;;;;;2.53;0.90;;;;;;;;;;2097378;28;20048;-69
2023/08/12 06:42:35;;;;;;;2.33;0.90;;;;;;;;;;2101139;28;20040;-72
2023/08/12 06:43:54;;;;;;;3.53;0.82;;;;;;;;;;2098237;28;20025;-69
2023/08/12 06:45:13;;;;;;;1.85;0.80;;;;;;;;;;2100082;28;20032;-64
2023/08/12 06:46:32;;;;;;;1.33;1.00;;;;;;;;;;2095731;28;20032;-69
2023/08/12 06:47:51;;;;;;;2.20;1.00;;;;;;;;;;2097003;28;20182;-64
2023/08/12 06:49:09;;;;;;;1.70;1.05;;;;;;;;;;2099204;28;20032;-70
2023/08/12 06:50:30;;;;;;;3.10;1.00;;;;;;;;;;2097286;28;20024;-70
2023/08/12 06:51:49;;;;;;;3.58;0.85;;;;;;;;;;2086861;28;20021;-69
2023/08/12 06:53:08;;;;;;;2.08;1.20;;;;;;;;;;2090701;28;20493;-69
2023/08/12 06:54:27;;;;;;;2.25;0.90;;;;;;;;;;2096966;28;20041;-70
2023/08/12 06:55:46;;;;;;;4.18;1.20;;;;;;;;;;2097796;28;20083;-70
2023/08/12 06:57:05;;;;;;;2.70;0.85;;;;;;;;;;2095978;28;20555;-68
2023/08/12 06:58:23;;;;;;;8.77;1.10;;;;;;;;;;2097291;28;20032;-68
2023/08/12 06:59:42;;;;;;;4.65;1.92;;;;;;;;;;2098502;28;20032;-68
2023/08/12 07:01:01;;;;;;;3.72;0.90;;;;;;;;;;2098778;28;20044;-69
2023/08/12 07:02:21;;;;;;;1.88;0.98;;;;;;;;;;2098566;28;20040;-69
2023/08/12 07:03:39;;;;;;;2.75;0.88;;;;;;;;;;2099075;28;20033;-69
2023/08/12 07:04:58;;;;;;;1.40;1.20;;;;;;;;;;2097055;28;20029;-68
2023/08/12 07:06:17;;;;;;;2.03;0.90;;;;;;;;;;2098818;28;20016;-70
2023/08/12 07:07:36;;;;;;;4.18;1.15;;;;;;;;;;2096047;28;20060;-66
2023/08/12 07:08:56;;;;;;;1.88;0.98;;;;;;;;;;2099247;28;20083;-70
2023/08/12 07:10:15;;;;;;;1.95;1.00;;;;;;;;;;2097727;28;20036;-70
2023/08/12 07:11:34;;;;;;;2.42;1.00;;;;;;;;;;2096658;28;20020;-65
2023/08/12 07:12:53;;;;;;;2.33;0.90;;;;;;;;;;2095505;28;20040;-66
2023/08/12 07:14:12;;;;;;;3.78;1.17;;;;;;;;;;2085232;28;20473;-69
2023/08/12 07:15:31;;;;;;;3.38;1.17;;;;;;;;;;2094630;28;20068;-70
2023/08/12 07:16:50;;;;;;;2.50;1.00;;;;;;;;;;2088468;28;20028;-69
2023/08/12 07:18:09;;;;;;;2.97;1.00;;;;;;;;;;2091787;28;20413;-69
2023/08/12 07:19:29;;;;;;;2.10;0.93;;;;;;;;;;2097195;28;20025;-70
2023/08/12 07:20:47;;;;;;;4.07;1.25;;;;;;;;;;2095459;28;20028;-69
2023/08/12 07:22:06;;;;;;;2.08;0.93;;;;;;;;;;2097078;28;20645;-69
2023/08/12 07:23:26;;;;;;;1.98;1.00;;;;;;;;;;2095077;28;20504;-68
2023/08/12 07:24:45;;;;;;;2.95;1.30;;;;;;;;;;2098294;28;20115;-69
2023/08/12 07:26:04;;;;;;;3.58;1.13;;;;;;;;;;2094396;28;20654;-71
2023/08/12 07:27:23;;;;;;;2.92;1.00;;;;;;;;;;2094168;28;20033;-68
2023/08/12 07:28:42;;;;;;;2.10;1.02;;;;;;;;;;2092892;28;20029;-68
2023/08/12 07:30:01;;;;;;;1.83;0.90;;;;;;;;;;2090108;28;20103;-68
2023/08/12 07:31:20;;;;;;;2.80;0.93;;;;;;;;;;2087466;28;20394;-66
2023/08/12 07:32:39;;;;;;;5.60;1.38;;;;;;;;;;2094539;28;20032;-69
2023/08/12 07:33:58;;;;;;;1.85;1.00;;;;;;;;;;2098282;28;20028;-69
2023/08/12 07:35:17;;;;;;;2.08;0.85;;;;;;;;;;2097270;28;20040;-69
2023/08/12 07:36:36;;;;;;;3.53;1.88;;;;;;;;;;2099086;28;20036;-68
2023/08/12 07:37:55;;;;;;;3.40;1.02;;;;;;;;;;2100787;28;20099;-69
2023/08/12 07:39:14;;;;;;;2.92;1.25;;;;;;;;;;2098418;28;20032;-70
2023/08/12 07:40:33;;;;;;;5.07;1.40;;;;;;;;;;2090256;28;20029;-68
2023/08/12 07:41:52;;;;;;;2.53;1.10;;;;;;;;;;2095216;28;20036;-70
2023/08/12 07:43:11;;;;;;;3.80;1.13;;;;;;;;;;2100325;28;20036;-69
2023/08/12 07:44:30;;;;;;;1.90;0.90;;;;;;;;;;2099645;28;20048;-69
2023/08/12 07:45:53;;;;;;;4.40;1.00;;;;;;;;;;2098571;28;20020;-69
2023/08/12 07:47:12;;;;;;;;;;;;;;;;;;2098452;28;20033;-68
2023/08/12 07:48:31;;;;;;;1.73;1.10;;;;;;;;;;2098586;28;19912;-69
2023/08/12 07:49:50;;;;;;;2.35;0.90;;;;;;;;;;2098182;28;20079;-69
2023/08/12 07:51:09;;;;;;;2.90;1.00;;;;;;;;;;2098149;28;20087;-67
2023/08/12 07:52:28;;;;;;;3.67;1.15;;;;;;;;;;2099512;28;20048;-65
2023/08/12 07:53:47;;;;;;;2.30;0.93;;;;;;;;;;2100003;28;20028;-69
2023/08/12 07:55:06;;;;;;;2.33;1.25;;;;;;;;;;2092117;28;20040;-69
2023/08/12 07:56:25;;;;;;;1.33;0.80;;;;;;;;;;2094240;28;20484;-69